Time;durP1;ratioP1;P1;durP2;ratioP2;P2;SDS_P1;SDS_P2;PMS_P1;PMS_P2;Temp;Humidity;BMP_temperature;BMP_pressure;BME280_temperature;BME280_humidity;BME280_pressure;Samples;Min_cycle;Max_cycle;Signal;HPM_P1;HPM_P2
2021/12/29 00:00:34;;;;;;;4.83;1.83;;;7.20;99.90;;;;;;5062171;28;20208;-53
2021/12/29 00:03:03;;;;;;;3.87;2.60;;;7.20;99.90;;;;;;5060731;28;20206;-55
2021/12/29 00:05:32;;;;;;;2.70;2.50;;;7.20;99.90;;;;;;5065260;28;20313;-54
2021/12/29 00:08:00;;;;;;;3.23;2.47;;;7.20;99.90;;;;;;5063485;28;20327;-53
2021/12/29 00:10:29;;;;;;;2.47;2.27;;;7.30;99.90;;;;;;5060764;28;20256;-55
2021/12/29 00:12:57;;;;;;;4.23;3.30;;;7.30;99.90;;;;;;5060889;28;20204;-53
2021/12/29 00:15:27;;;;;;;5.17;3.30;;;7.40;99.90;;;;;;5061012;28;20728;-55
2021/12/29 00:17:59;;;;;;;3.87;3.40;;;7.40;99.90;;;;;;5063499;28;20217;-54
2021/12/29 00:20:31;;;;;;;5.33;3.73;;;7.40;99.90;;;;;;5063797;28;20246;-55
2021/12/29 00:23:02;;;;;;;5.27;3.80;;;7.40;99.90;;;;;;5062199;28;20211;-56
2021/12/29 00:25:30;;;;;;;4.30;3.90;;;7.30;99.90;;;;;;5061928;28;20224;-54
2021/12/29 00:27:59;;;;;;;6.07;4.80;;;7.30;99.90;;;;;;5066265;28;20239;-55
2021/12/29 00:30:29;;;;;;;5.00;3.90;;;7.30;99.90;;;;;;5062333;28;20819;-53
2021/12/29 00:32:59;;;;;;;5.37;4.33;;;7.30;99.90;;;;;;5062590;28;20231;-52
2021/12/29 00:35:29;;;;;;;6.07;4.13;;;7.40;99.90;;;;;;5065716;28;20228;-54
2021/12/29 00:37:59;;;;;;;4.20;3.83;;;7.40;99.90;;;;;;5061150;28;20228;-54
2021/12/29 00:40:27;;;;;;;4.20;3.80;;;7.40;99.90;;;;;;5062033;28;20275;-55
2021/12/29 00:42:55;;;;;;;6.93;5.33;;;7.40;99.90;;;;;;5060376;28;20213;-51
2021/12/29 00:45:23;;;;;;;4.50;4.10;;;7.40;99.90;;;;;;5060144;28;20229;-54
2021/12/29 00:47:52;;;;;;;5.70;5.20;;;7.40;99.90;;;;;;5063238;28;20547;-55
2021/12/29 00:50:21;;;;;;;4.37;3.97;;;7.40;99.90;;;;;;5060607;28;20231;-53
2021/12/29 00:52:49;;;;;;;5.63;5.10;;;7.40;99.90;;;;;;5065683;28;20208;-54
2021/12/29 00:55:19;;;;;;;8.80;6.37;;;7.40;99.90;;;;;;5062254;28;20221;-54
2021/12/29 00:57:48;;;;;;;7.27;5.77;;;7.40;99.90;;;;;;5062637;28;20598;-54
2021/12/29 01:00:19;;;;;;;6.67;5.33;;;7.30;99.90;;;;;;5062603;28;20265;-53
2021/12/29 01:02:49;;;;;;;8.20;6.20;;;7.30;99.90;;;;;;5062384;28;20558;-54
2021/12/29 01:05:18;;;;;;;8.13;5.23;;;7.30;99.90;;;;;;5063001;28;20256;-54
2021/12/29 01:07:49;;;;;;;5.27;4.70;;;7.40;99.90;;;;;;5063116;28;20202;-55
2021/12/29 01:10:19;;;;;;;6.60;5.97;;;7.40;99.90;;;;;;5062794;28;20201;-55
2021/12/29 01:12:53;;;;;;;7.57;6.80;;;7.40;99.90;;;;;;5059686;28;20220;-54
2021/12/29 01:15:27;;;;;;;8.17;7.03;;;7.40;99.90;;;;;;5059641;28;20224;-55
2021/12/29 01:17:57;;;;;;;11.60;7.37;;;7.40;99.90;;;;;;5058818;28;20709;-53
2021/12/29 01:20:26;;;;;;;7.70;5.77;;;7.50;99.90;;;;;;5061521;28;20264;-52
2021/12/29 01:22:57;;;;;;;9.77;8.57;;;7.50;99.90;;;;;;5061491;28;20212;-55
2021/12/29 01:25:25;;;;;;;6.77;6.10;;;7.60;99.90;;;;;;5051234;28;20224;-53
2021/12/29 01:27:53;;;;;;;6.97;6.27;;;7.60;99.90;;;;;;5064786;28;20263;-53
2021/12/29 01:30:22;;;;;;;10.53;7.40;;;7.60;99.90;;;;;;5061897;28;20617;-54
2021/12/29 01:32:50;;;;;;;8.77;6.27;;;7.60;99.90;;;;;;5058265;28;20635;-54
2021/12/29 01:35:19;;;;;;;6.67;6.03;;;7.60;99.90;;;;;;5061466;28;20702;-55
2021/12/29 01:37:47;;;;;;;7.17;6.47;;;7.50;99.90;;;;;;5067625;28;20555;-55
2021/12/29 01:40:19;;;;;;;7.17;6.47;;;7.50;99.90;;;;;;5071373;28;20244;-55
2021/12/29 01:42:47;;;;;;;10.47;7.80;;;7.60;99.90;;;;;;5071280;28;20244;-55
2021/12/29 01:45:15;;;;;;;9.70;7.97;;;7.60;99.90;;;;;;5069905;28;20278;-55
2021/12/29 01:47:44;;;;;;;7.40;6.67;;;7.50;99.90;;;;;;5054859;28;20287;-54
2021/12/29 01:50:13;;;;;;;7.30;6.60;;;7.60;99.90;;;;;;5051415;28;20212;-52
2021/12/29 01:52:49;;;;;;;11.97;9.00;;;7.60;99.90;;;;;;5060481;28;20262;-55
2021/12/29 01:55:19;;;;;;;9.60;7.90;;;7.60;99.90;;;;;;5071526;28;20324;-54
2021/12/29 01:57:48;;;;;;;8.17;7.33;;;7.60;99.90;;;;;;5070664;28;20215;-53
2021/12/29 02:00:19;;;;;;;8.03;7.10;;;7.60;99.90;;;;;;5056761;28;20259;-53
2021/12/29 02:02:47;;;;;;;11.20;9.17;;;7.60;99.90;;;;;;5050907;28;20209;-53
2021/12/29 02:05:16;;;;;;;9.10;7.93;;;7.60;99.90;;;;;;5065099;28;20217;-53
2021/12/29 02:07:45;;;;;;;8.43;7.53;;;7.60;99.90;;;;;;5071179;28;20209;-53
2021/12/29 02:10:16;;;;;;;9.37;8.20;;;7.60;99.90;;;;;;5070565;28;20205;-55
2021/12/29 02:12:45;;;;;;;8.77;7.50;;;7.60;99.90;;;;;;5070818;28;20731;-54
2021/12/29 02:15:14;;;;;;;8.40;7.50;;;7.60;99.90;;;;;;5070262;28;20233;-53
2021/12/29 02:17:42;;;;;;;8.27;7.27;;;7.60;99.90;;;;;;5071003;28;20212;-55
2021/12/29 02:20:14;;;;;;;8.50;7.50;;;7.60;99.90;;;;;;5070916;28;20264;-53
2021/12/29 02:22:45;;;;;;;8.80;7.13;;;7.60;99.90;;;;;;5070758;28;20201;-55
2021/12/29 02:25:34;;;;;;;9.67;8.57;;;7.70;99.90;;;;;;5070800;28;20228;-53
2021/12/29 02:28:03;;;;;;;11.40;9.47;;;7.70;99.90;;;;;;5070779;28;20205;-53
2021/12/29 02:30:31;;;;;;;11.37;8.53;;;7.70;99.90;;;;;;5071132;28;20201;-54
2021/12/29 02:33:02;;;;;;;7.60;5.73;;;7.70;99.90;;;;;;5067903;28;20655;-54
2021/12/29 02:35:33;;;;;;;7.20;6.37;;;7.80;99.90;;;;;;5063818;28;20225;-53
2021/12/29 02:38:03;;;;;;;6.40;5.80;;;7.80;99.90;;;;;;5050599;28;20193;-53
2021/12/29 02:40:31;;;;;;;7.07;6.30;;;7.70;99.90;;;;;;5050551;28;20256;-54
2021/12/29 02:43:00;;;;;;;7.10;6.10;;;7.80;99.90;;;;;;5050322;28;20278;-54
2021/12/29 02:45:32;;;;;;;9.37;7.10;;;7.70;99.90;;;;;;5050758;28;20229;-56
2021/12/29 02:48:01;;;;;;;7.97;6.17;;;7.70;99.90;;;;;;5069870;28;20212;-53
2021/12/29 02:50:29;;;;;;;7.57;6.23;;;7.70;99.90;;;;;;5069888;28;20267;-54
2021/12/29 02:52:58;;;;;;;7.27;6.30;;;7.80;99.90;;;;;;5070770;28;20247;-54
2021/12/29 02:55:26;;;;;;;8.47;6.50;;;7.80;99.90;;;;;;5070457;28;20217;-55
2021/12/29 02:57:54;;;;;;;6.90;6.07;;;7.80;99.90;;;;;;5070160;28;20213;-55
2021/12/29 03:00:23;;;;;;;7.00;6.00;;;7.80;99.90;;;;;;5055090;28;20225;-54
2021/12/29 03:02:51;;;;;;;7.00;6.30;;;7.90;99.90;;;;;;5050542;28;20206;-53
2021/12/29 03:05:20;;;;;;;6.20;5.60;;;7.90;99.90;;;;;;5059290;28;20225;-55
2021/12/29 03:07:48;;;;;;;5.57;5.00;;;7.90;99.90;;;;;;5050378;28;20263;-53
2021/12/29 03:10:18;;;;;;;6.00;4.70;;;7.90;99.90;;;;;;5054294;28;20193;-53
2021/12/29 03:12:46;;;;;;;5.57;5.03;;;7.90;99.90;;;;;;5070243;28;20209;-52
2021/12/29 03:15:14;;;;;;;6.30;4.80;;;7.90;99.90;;;;;;5070741;28;20286;-53
2021/12/29 03:17:42;;;;;;;5.47;4.97;;;7.90;99.90;;;;;;5073870;28;20201;-53
2021/12/29 03:20:11;;;;;;;6.03;4.90;;;7.90;99.90;;;;;;5073950;28;20229;-54
2021/12/29 03:22:40;;;;;;;4.63;4.07;;;7.90;99.90;;;;;;5073862;28;20270;-54
2021/12/29 03:25:08;;;;;;;5.90;5.00;;;7.90;99.90;;;;;;5073846;28;20260;-53
2021/12/29 03:27:38;;;;;;;6.20;4.87;;;7.90;99.90;;;;;;5073439;28;20217;-53
2021/12/29 03:30:06;;;;;;;4.80;4.30;;;7.90;99.90;;;;;;5070928;28;20201;-53
2021/12/29 03:32:41;;;;;;;4.43;3.73;;;7.90;99.90;;;;;;5073757;28;20239;-53
2021/12/29 03:35:10;;;;;;;4.27;3.20;;;7.90;99.90;;;;;;5069035;28;20220;-57
2021/12/29 03:37:38;;;;;;;3.60;3.30;;;7.90;99.90;;;;;;5053477;28;20225;-53
2021/12/29 03:40:07;;;;;;;3.53;3.23;;;7.90;99.90;;;;;;5053496;28;20225;-53
2021/12/29 03:42:38;;;;;;;3.63;2.57;;;7.90;99.90;;;;;;5052858;28;20213;-52
2021/12/29 03:45:06;;;;;;;3.90;2.30;;;8.00;99.90;;;;;;5057820;28;20225;-58
2021/12/29 03:47:35;;;;;;;2.57;2.30;;;8.00;99.90;;;;;;5058080;28;20201;-54
2021/12/29 03:50:03;;;;;;;3.40;2.30;;;8.10;99.90;;;;;;5053670;28;20210;-53
2021/12/29 03:52:32;;;;;;;2.30;2.10;;;8.10;99.90;;;;;;5064872;28;20229;-53
2021/12/29 03:55:00;;;;;;;1.97;1.80;;;8.20;99.90;;;;;;5072681;28;20216;-54
2021/12/29 03:57:28;;;;;;;2.03;1.90;;;8.20;99.90;;;;;;5073445;28;20208;-53
2021/12/29 03:59:57;;;;;;;1.90;1.80;;;8.20;99.90;;;;;;5069606;28;20609;-54
2021/12/29 04:02:25;;;;;;;2.10;1.90;;;8.20;99.90;;;;;;5053496;28;20233;-54
2021/12/29 04:04:54;;;;;;;1.90;1.80;;;8.20;99.90;;;;;;5065821;28;20228;-54
2021/12/29 04:07:22;;;;;;;2.00;1.90;;;8.20;99.90;;;;;;5077049;28;20208;-54
2021/12/29 04:09:50;;;;;;;1.80;1.53;;;8.30;99.90;;;;;;5073192;28;20235;-53
2021/12/29 04:12:18;;;;;;;1.73;1.63;;;8.30;99.90;;;;;;5072730;28;20204;-53
2021/12/29 04:14:46;;;;;;;3.63;1.97;;;8.20;99.90;;;;;;5072741;28;20259;-54
2021/12/29 04:17:24;;;;;;;3.10;1.60;;;8.20;99.90;;;;;;5072880;28;20224;-53
2021/12/29 04:22:35;;;;;;;1.70;1.60;;;8.30;99.90;;;;;;5022399;28;20212;-54
2021/12/29 04:25:05;;;;;;;2.00;1.80;;;8.30;99.90;;;;;;5052546;28;20350;-54
2021/12/29 04:27:33;;;;;;;2.67;1.70;;;8.30;99.90;;;;;;5069955;28;20205;-55
2021/12/29 04:30:01;;;;;;;1.80;1.70;;;8.30;99.90;;;;;;5072885;28;20235;-55
2021/12/29 04:32:31;;;;;;;2.03;1.80;;;8.40;99.90;;;;;;5072818;28;20856;-54
2021/12/29 04:34:59;;;;;;;1.63;1.53;;;8.30;99.90;;;;;;5072148;28;20283;-53
2021/12/29 04:37:27;;;;;;;1.90;1.50;;;8.30;99.90;;;;;;5072082;28;20212;-54
2021/12/29 04:39:55;;;;;;;1.60;1.50;;;8.30;99.90;;;;;;5072121;28;20233;-54
2021/12/29 04:42:23;;;;;;;2.40;1.40;;;8.30;99.90;;;;;;5072476;28;20237;-54
2021/12/29 04:44:51;;;;;;;1.50;1.40;;;8.30;99.90;;;;;;5072069;28;20721;-53
2021/12/29 04:47:21;;;;;;;1.10;1.10;;;8.30;99.90;;;;;;5071713;28;20642;-53
2021/12/29 04:49:51;;;;;;;1.30;0.90;;;8.20;99.90;;;;;;5072823;28;20252;-53
2021/12/29 04:52:19;;;;;;;0.90;0.90;;;8.20;99.90;;;;;;5071776;28;21496;-56
2021/12/29 04:54:47;;;;;;;1.67;1.00;;;8.20;99.90;;;;;;5072131;28;20729;-54
2021/12/29 04:57:16;;;;;;;0.87;0.87;;;8.30;99.90;;;;;;5071654;28;20209;-53
2021/12/29 04:59:44;;;;;;;0.80;0.80;;;8.30;99.90;;;;;;5061654;28;20202;-60
2021/12/29 05:02:12;;;;;;;1.10;0.70;;;8.30;99.90;;;;;;5051942;28;20263;-55
2021/12/29 05:04:47;;;;;;;0.80;0.80;;;8.20;99.90;;;;;;5061397;28;20206;-55
2021/12/29 05:10:03;;;;;;;0.50;0.50;;;8.20;99.90;;;;;;5051909;28;20247;-54
2021/12/29 05:12:32;;;;;;;1.53;0.60;;;8.30;99.90;;;;;;5069333;28;20614;-52
2021/12/29 05:15:00;;;;;;;0.40;0.40;;;8.30;99.90;;;;;;5071781;28;20222;-54
2021/12/29 05:17:28;;;;;;;1.03;0.37;;;8.30;99.90;;;;;;5072119;28;20255;-54
2021/12/29 05:19:56;;;;;;;0.50;0.50;;;8.30;99.90;;;;;;5071933;28;20204;-54
2021/12/29 05:22:25;;;;;;;0.63;0.60;;;8.40;99.90;;;;;;5065796;28;20267;-54
2021/12/29 05:24:53;;;;;;;1.53;0.80;;;8.40;99.90;;;;;;5051327;28;20282;-52
2021/12/29 05:27:21;;;;;;;0.50;0.50;;;8.40;99.90;;;;;;5057832;28;20244;-54
2021/12/29 05:29:49;;;;;;;0.77;0.50;;;8.30;99.90;;;;;;5065986;28;20588;-52
2021/12/29 05:32:18;;;;;;;1.07;0.50;;;8.40;99.90;;;;;;5051268;28;20735;-54
2021/12/29 05:34:46;;;;;;;0.50;0.50;;;8.40;99.90;;;;;;5051509;28;20299;-55
2021/12/29 05:37:14;;;;;;;0.80;0.80;;;8.30;99.90;;;;;;5071173;28;20209;-55
2021/12/29 05:39:43;;;;;;;2.10;1.20;;;8.30;99.90;;;;;;5071410;28;20205;-54
2021/12/29 05:42:11;;;;;;;1.30;1.30;;;8.40;99.90;;;;;;5071250;28;20240;-54
2021/12/29 05:44:39;;;;;;;1.30;1.20;;;8.40;99.90;;;;;;5070811;28;20204;-54
2021/12/29 05:47:08;;;;;;;1.53;1.43;;;8.40;99.90;;;;;;5071676;28;20212;-54
2021/12/29 05:49:36;;;;;;;1.37;1.27;;;8.30;99.90;;;;;;5071039;28;20204;-53
2021/12/29 05:52:04;;;;;;;1.20;1.20;;;8.40;99.90;;;;;;5071270;28;20197;-54
2021/12/29 05:54:33;;;;;;;5.30;4.00;;;8.40;99.90;;;;;;5070854;28;20227;-53
2021/12/29 05:57:02;;;;;;;23.67;15.47;;;8.50;99.90;;;;;;5070786;28;20204;-54
2021/12/29 05:59:30;;;;;;;3.90;3.10;;;8.50;99.90;;;;;;5070973;28;20255;-54
2021/12/29 06:01:58;;;;;;;3.27;2.93;;;8.50;99.90;;;;;;5070637;28;20669;-53
2021/12/29 06:04:27;;;;;;;3.00;2.70;;;8.40;99.90;;;;;;5071233;28;20208;-53
2021/12/29 06:06:55;;;;;;;2.20;2.00;;;8.40;99.90;;;;;;5070735;28;20205;-54
2021/12/29 06:09:23;;;;;;;2.70;2.10;;;8.40;99.90;;;;;;5071130;28;20235;-54
2021/12/29 06:11:51;;;;;;;2.43;2.23;;;8.40;99.90;;;;;;5070848;28;20745;-53
2021/12/29 06:14:20;;;;;;;2.07;1.90;;;8.50;99.90;;;;;;5070588;28;20208;-58
2021/12/29 06:16:49;;;;;;;2.20;2.00;;;8.50;99.90;;;;;;5071065;28;20672;-55
2021/12/29 06:19:17;;;;;;;2.50;1.80;;;8.50;99.90;;;;;;5070685;28;20669;-55
2021/12/29 06:21:45;;;;;;;2.37;2.17;;;8.50;99.90;;;;;;5070852;28;20701;-54
2021/12/29 06:24:14;;;;;;;2.30;1.73;;;8.50;99.90;;;;;;5050585;28;20677;-54
2021/12/29 06:26:42;;;;;;;1.90;1.70;;;8.50;99.90;;;;;;5051896;28;20240;-53
2021/12/29 06:29:11;;;;;;;1.57;1.47;;;8.50;99.90;;;;;;5070677;28;20739;-54
2021/12/29 06:31:44;;;;;;;1.83;1.63;;;8.50;99.90;;;;;;5070726;28;20673;-54
2021/12/29 06:34:12;;;;;;;2.23;2.03;;;8.50;99.90;;;;;;5063612;28;20210;-53
2021/12/29 06:36:40;;;;;;;3.97;1.80;;;8.50;99.90;;;;;;5050390;28;20273;-54
2021/12/29 06:39:09;;;;;;;31.47;20.77;;;8.50;99.90;;;;;;5050706;28;20207;-52
2021/12/29 06:41:37;;;;;;;28.63;19.43;;;8.40;99.90;;;;;;5064630;28;20227;-54
2021/12/29 06:44:05;;;;;;;7.40;5.70;;;8.40;99.90;;;;;;5070902;28;20231;-54
2021/12/29 06:46:34;;;;;;;3.07;2.77;;;8.50;99.90;;;;;;5070693;28;20221;-54
2021/12/29 06:49:04;;;;;;;14.13;10.93;;;8.50;99.90;;;;;;5060228;28;20212;-53
2021/12/29 06:51:32;;;;;;;6.97;6.27;;;8.50;99.90;;;;;;5055108;28;20197;-54
2021/12/29 06:54:00;;;;;;;2.90;2.70;;;8.50;99.90;;;;;;5055958;28;20200;-54
2021/12/29 06:56:28;;;;;;;3.47;2.37;;;8.50;99.90;;;;;;5057292;28;20716;-54
2021/12/29 06:58:56;;;;;;;2.53;2.33;;;8.50;99.90;;;;;;5053281;28;20618;-54
2021/12/29 07:01:24;;;;;;;2.60;1.80;;;8.50;99.90;;;;;;5053959;28;20263;-53
2021/12/29 07:03:53;;;;;;;1.40;1.30;;;8.50;99.90;;;;;;5055797;28;20202;-56
2021/12/29 07:06:22;;;;;;;1.83;1.20;;;8.50;99.90;;;;;;5052961;28;20787;-53
2021/12/29 07:08:51;;;;;;;1.33;1.23;;;8.50;99.90;;;;;;5056714;28;20271;-54
2021/12/29 07:11:19;;;;;;;1.67;1.57;;;8.50;99.90;;;;;;5056682;28;20209;-55
2021/12/29 07:13:47;;;;;;;1.60;1.50;;;8.50;99.90;;;;;;5053337;28;20256;-54
2021/12/29 07:16:15;;;;;;;2.00;1.33;;;8.50;99.90;;;;;;5070332;28;20229;-53
2021/12/29 07:18:48;;;;;;;1.70;1.50;;;8.50;99.90;;;;;;5053728;28;20292;-54
2021/12/29 07:21:17;;;;;;;1.93;1.30;;;8.50;99.90;;;;;;5052644;28;20245;-55
2021/12/29 07:23:47;;;;;;;4.10;1.53;;;8.40;99.90;;;;;;5053855;28;20209;-54
2021/12/29 07:26:15;;;;;;;1.60;1.50;;;8.40;99.90;;;;;;5053499;28;20229;-54
2021/12/29 07:28:43;;;;;;;2.00;1.80;;;8.40;99.90;;;;;;5071124;28;20673;-54
2021/12/29 07:31:11;;;;;;;1.63;1.50;;;8.40;99.90;;;;;;5065290;28;20204;-53
2021/12/29 07:33:39;;;;;;;1.50;1.23;;;8.40;99.90;;;;;;5073608;28;20200;-54
2021/12/29 07:36:07;;;;;;;1.40;1.30;;;8.30;99.90;;;;;;5061182;28;20233;-53
2021/12/29 07:38:35;;;;;;;1.97;1.40;;;8.40;99.90;;;;;;5053449;28;20254;-55
2021/12/29 07:41:05;;;;;;;1.80;1.50;;;8.40;99.90;;;;;;5062405;28;20247;-54
2021/12/29 07:43:35;;;;;;;2.50;1.40;;;8.40;99.90;;;;;;5063868;28;20209;-53
2021/12/29 07:46:03;;;;;;;2.73;1.90;;;8.40;99.90;;;;;;5065030;28;20266;-54
2021/12/29 07:48:31;;;;;;;2.33;1.60;;;8.40;99.90;;;;;;5073526;28;20209;-54
2021/12/29 07:51:00;;;;;;;2.10;1.90;;;8.40;99.90;;;;;;5072719;28;20228;-54
2021/12/29 07:53:28;;;;;;;2.00;1.80;;;8.50;99.90;;;;;;5073063;28;20250;-54
2021/12/29 07:55:56;;;;;;;2.77;1.60;;;8.40;99.90;;;;;;5073029;28;20705;-54
2021/12/29 07:58:26;;;;;;;2.23;1.70;;;8.40;99.90;;;;;;5072984;28;20240;-54
2021/12/29 08:00:54;;;;;;;1.60;1.50;;;8.40;99.90;;;;;;5072832;28;20259;-54
2021/12/29 08:03:22;;;;;;;1.60;1.50;;;8.40;99.90;;;;;;5062684;28;20316;-54
2021/12/29 08:05:51;;;;;;;2.00;1.77;;;8.50;99.90;;;;;;5051353;28;20276;-54
2021/12/29 08:08:19;;;;;;;1.70;1.60;;;8.50;99.90;;;;;;5058182;28;20217;-54
2021/12/29 08:10:47;;;;;;;1.63;1.53;;;8.50;99.90;;;;;;5067306;28;20244;-54
2021/12/29 08:13:15;;;;;;;1.70;1.60;;;8.50;99.90;;;;;;5072401;28;20200;-54
2021/12/29 08:15:44;;;;;;;1.93;1.80;;;8.50;99.90;;;;;;5072429;28;20229;-55
2021/12/29 08:18:12;;;;;;;1.73;1.63;;;8.50;99.90;;;;;;5072707;28;20213;-54
2021/12/29 08:20:41;;;;;;;1.73;1.20;;;8.50;99.90;;;;;;5069125;28;20209;-55
2021/12/29 08:23:10;;;;;;;3.43;1.40;;;8.60;99.90;;;;;;5064664;28;20662;-56
2021/12/29 08:25:39;;;;;;;1.37;1.20;;;8.60;99.90;;;;;;5072001;28;20985;-56
2021/12/29 08:28:08;;;;;;;1.83;1.23;;;8.60;99.90;;;;;;5071900;28;20201;-52
2021/12/29 08:30:36;;;;;;;1.63;1.30;;;8.60;99.90;;;;;;5066832;28;20208;-53
2021/12/29 08:33:06;;;;;;;1.67;1.57;;;8.60;99.90;;;;;;5065543;28;20202;-54
2021/12/29 08:35:34;;;;;;;2.37;1.80;;;8.60;99.90;;;;;;5068597;28;20246;-53
2021/12/29 08:38:02;;;;;;;1.50;1.40;;;8.70;99.90;;;;;;5067348;28;20197;-53
2021/12/29 08:40:31;;;;;;;3.90;1.87;;;8.60;99.90;;;;;;5068143;28;20210;-55
2021/12/29 08:43:01;;;;;;;4.40;1.93;;;8.60;99.90;;;;;;5071667;28;20979;-55
2021/12/29 08:45:30;;;;;;;2.23;2.10;;;8.60;99.90;;;;;;5070915;28;20236;-54
2021/12/29 08:47:59;;;;;;;2.60;2.30;;;8.70;99.90;;;;;;5071224;28;20678;-54
2021/12/29 08:50:30;;;;;;;2.53;2.33;;;8.60;99.90;;;;;;5055932;28;20623;-54
2021/12/29 08:53:02;;;;;;;2.80;2.53;;;8.60;99.90;;;;;;5062013;28;20250;-54
2021/12/29 08:55:31;;;;;;;4.57;3.03;;;8.60;99.90;;;;;;5049952;28;20708;-55
2021/12/29 08:57:59;;;;;;;3.30;2.40;;;8.60;99.90;;;;;;5048556;28;20213;-53
2021/12/29 09:00:28;;;;;;;3.20;2.90;;;8.60;99.90;;;;;;5058826;28;20214;-54
2021/12/29 09:02:56;;;;;;;4.53;3.40;;;8.70;99.90;;;;;;5065689;28;20249;-53
2021/12/29 09:05:25;;;;;;;3.53;3.23;;;8.70;99.90;;;;;;5065570;28;20702;-54
2021/12/29 09:07:54;;;;;;;3.27;2.97;;;8.70;99.90;;;;;;5071480;28;20213;-52
2021/12/29 09:10:24;;;;;;;4.13;2.90;;;8.70;99.90;;;;;;5071720;28;20209;-54
2021/12/29 09:12:55;;;;;;;3.60;3.30;;;8.70;99.90;;;;;;5061959;28;20216;-53
2021/12/29 09:15:25;;;;;;;3.20;2.90;;;8.70;99.90;;;;;;5065829;28;20652;-51
2021/12/29 09:17:53;;;;;;;3.60;3.30;;;8.80;99.90;;;;;;5070918;28;20247;-53
2021/12/29 09:20:27;;;;;;;3.67;3.33;;;8.80;99.90;;;;;;5071101;28;20239;-54
2021/12/29 09:23:00;;;;;;;3.63;3.33;;;8.90;99.90;;;;;;5068127;28;20370;-54
2021/12/29 09:25:29;;;;;;;4.10;3.70;;;8.90;99.90;;;;;;5070944;28;20225;-53
2021/12/29 09:27:57;;;;;;;4.47;3.80;;;9.00;99.90;;;;;;5070614;28;20270;-53
2021/12/29 09:30:28;;;;;;;6.67;5.43;;;9.00;99.90;;;;;;5070333;28;20307;-54
2021/12/29 09:32:56;;;;;;;5.40;4.73;;;9.10;99.90;;;;;;5071043;28;20227;-51
2021/12/29 09:35:25;;;;;;;5.10;4.67;;;9.00;99.90;;;;;;5069056;28;20229;-54
2021/12/29 09:37:53;;;;;;;6.10;5.50;;;9.10;99.90;;;;;;5070969;28;20236;-54
2021/12/29 09:40:25;;;;;;;6.07;5.47;;;9.10;99.90;;;;;;5056978;28;20255;-54
2021/12/29 09:42:55;;;;;;;5.70;5.20;;;9.10;99.90;;;;;;5066275;28;20225;-54
2021/12/29 09:45:25;;;;;;;6.67;5.67;;;9.10;99.90;;;;;;5068044;28;20275;-53
2021/12/29 09:47:56;;;;;;;6.20;5.70;;;9.10;99.90;;;;;;5070508;28;20220;-54
2021/12/29 09:50:25;;;;;;;6.37;5.77;;;9.10;99.90;;;;;;5070658;28;20221;-55
2021/12/29 09:52:54;;;;;;;7.27;6.53;;;9.10;99.90;;;;;;5070597;28;20695;-53
2021/12/29 09:55:25;;;;;;;7.27;6.57;;;9.20;99.90;;;;;;5069244;28;20279;-55
2021/12/29 09:57:55;;;;;;;8.30;7.60;;;9.20;99.90;;;;;;5067555;28;20207;-55
2021/12/29 10:00:27;;;;;;;7.23;6.10;;;9.30;99.90;;;;;;5067988;28;20262;-55
2021/12/29 10:02:57;;;;;;;6.67;6.07;;;9.30;99.90;;;;;;5068087;28;20254;-54
2021/12/29 10:05:27;;;;;;;6.37;5.57;;;9.20;99.90;;;;;;5070744;28;20231;-53
2021/12/29 10:08:00;;;;;;;6.20;5.60;;;9.20;99.90;;;;;;5070392;28;20270;-53
2021/12/29 10:10:30;;;;;;;6.50;5.80;;;9.10;99.90;;;;;;5070740;28;20209;-55
2021/12/29 10:12:59;;;;;;;6.20;5.70;;;9.10;99.90;;;;;;5067749;28;20246;-54
2021/12/29 10:15:31;;;;;;;7.07;5.27;;;9.10;99.90;;;;;;5056823;28;20229;-53
2021/12/29 10:18:08;;;;;;;7.03;6.40;;;9.10;99.90;;;;;;5050645;28;20205;-51
2021/12/29 10:20:46;;;;;;;8.80;6.10;;;9.10;99.90;;;;;;5069327;28;20209;-54
2021/12/29 10:23:18;;;;;;;7.17;6.47;;;9.20;99.90;;;;;;5070761;28;20278;-54
2021/12/29 10:25:48;;;;;;;7.90;7.20;;;9.20;99.90;;;;;;5070668;28;20279;-55
2021/12/29 10:28:22;;;;;;;9.17;6.80;;;9.10;99.90;;;;;;5074748;28;20255;-54
2021/12/29 10:30:57;;;;;;;7.20;6.50;;;9.10;99.90;;;;;;5074948;28;20285;-54
2021/12/29 10:33:31;;;;;;;8.50;7.75;;;9.20;99.90;;;;;;5063740;28;20431;-54
2021/12/29 10:36:13;;;;;;;8.50;7.70;;;9.40;99.90;;;;;;5055142;28;20717;-53
2021/12/29 10:38:43;;;;;;;7.63;6.83;;;9.40;99.90;;;;;;5066223;28;20202;-55
2021/12/29 10:41:13;;;;;;;7.57;6.90;;;9.30;99.90;;;;;;5065932;28;20563;-54
2021/12/29 10:43:51;;;;;;;9.53;8.57;;;9.30;99.90;;;;;;5074031;28;20256;-54
2021/12/29 10:46:20;;;;;;;8.77;7.87;;;9.40;99.90;;;;;;5074064;28;20282;-54
2021/12/29 10:48:50;;;;;;;8.97;8.17;;;9.40;99.90;;;;;;5054376;28;20596;-53
2021/12/29 10:51:20;;;;;;;9.93;8.93;;;9.40;99.90;;;;;;5054513;28;20208;-53
2021/12/29 10:53:48;;;;;;;9.55;8.75;;;9.50;99.90;;;;;;5055990;28;20856;-53
2021/12/29 10:56:23;;;;;;;9.00;8.10;;;9.70;99.90;;;;;;5060969;28;20248;-53
2021/12/29 10:58:54;;;;;;;8.47;7.53;;;9.60;99.90;;;;;;5070121;28;20203;-54
2021/12/29 11:01:24;;;;;;;8.23;7.43;;;9.60;99.90;;;;;;5072610;28;20607;-56
2021/12/29 11:03:55;;;;;;;8.10;7.30;;;9.60;99.90;;;;;;5074409;28;20226;-53
2021/12/29 11:06:25;;;;;;;8.93;8.13;;;9.60;99.90;;;;;;5073982;28;20229;-56
2021/12/29 11:08:55;;;;;;;8.30;7.50;;;9.60;99.90;;;;;;5074225;28;20211;-54
2021/12/29 11:11:34;;;;;;;6.70;6.20;;;9.60;99.90;;;;;;5054542;28;20714;-54
2021/12/29 11:14:10;;;;;;;7.60;6.90;;;9.70;99.90;;;;;;5053133;28;20198;-55
2021/12/29 11:16:39;;;;;;;6.70;6.20;;;9.60;99.90;;;;;;5059806;28;20225;-56
2021/12/29 11:19:07;;;;;;;6.03;5.53;;;9.60;99.90;;;;;;5053097;28;20248;-53
2021/12/29 11:21:37;;;;;;;6.47;5.87;;;9.60;99.90;;;;;;5054132;28;20263;-54
2021/12/29 11:24:14;;;;;;;6.03;5.53;;;9.60;99.90;;;;;;5053251;28;20222;-54
2021/12/29 11:26:45;;;;;;;6.83;6.23;;;9.60;99.90;;;;;;5054787;28;20238;-55
2021/12/29 11:29:15;;;;;;;7.00;6.40;;;9.60;99.90;;;;;;5073971;28;20208;-53
2021/12/29 11:31:46;;;;;;;7.07;6.37;;;9.60;99.90;;;;;;5073630;28;20185;-53
2021/12/29 11:34:20;;;;;;;9.00;7.53;;;9.60;99.90;;;;;;5073531;28;20756;-52
2021/12/29 11:37:02;;;;;;;9.57;8.50;;;9.60;99.90;;;;;;5072499;28;20277;-55
2021/12/29 11:39:32;;;;;;;10.50;9.50;;;9.50;99.90;;;;;;5073467;28;20258;-53
2021/12/29 11:42:01;;;;;;;10.57;9.50;;;9.50;99.90;;;;;;5072902;28;20229;-56
2021/12/29 11:44:29;;;;;;;12.03;9.63;;;9.50;99.90;;;;;;5072466;28;20766;-54
2021/12/29 11:46:57;;;;;;;11.17;9.97;;;9.60;99.90;;;;;;5073035;28;20270;-54
2021/12/29 11:49:26;;;;;;;11.67;10.47;;;9.60;99.90;;;;;;5072361;28;20297;-54
2021/12/29 11:51:58;;;;;;;12.70;10.97;;;9.60;99.90;;;;;;5071201;28;20655;-52
2021/12/29 11:54:37;;;;;;;11.70;10.30;;;9.60;99.90;;;;;;5057400;28;20614;-54
2021/12/29 11:57:15;;;;;;;12.23;10.70;;;9.60;99.90;;;;;;5073085;28;20212;-54
2021/12/29 11:59:43;;;;;;;11.80;10.40;;;9.60;99.90;;;;;;5063233;28;20199;-54
2021/12/29 12:02:11;;;;;;;11.03;9.97;;;9.60;99.90;;;;;;5056779;28;20205;-56
2021/12/29 12:04:40;;;;;;;12.00;10.83;;;9.60;99.90;;;;;;5052899;28;20275;-55
2021/12/29 12:07:14;;;;;;;13.40;12.00;;;9.50;99.90;;;;;;5052577;28;20216;-54
2021/12/29 12:09:46;;;;;;;12.73;11.43;;;9.60;99.90;;;;;;5053411;28;20209;-53
2021/12/29 12:12:17;;;;;;;15.67;12.73;;;9.60;99.90;;;;;;5063591;28;20267;-53
2021/12/29 12:14:48;;;;;;;13.40;11.47;;;9.60;99.90;;;;;;5065113;28;20202;-54
2021/12/29 12:17:19;;;;;;;14.70;13.30;;;9.70;99.90;;;;;;5060819;28;20255;-54
2021/12/29 12:19:59;;;;;;;12.53;11.33;;;9.70;99.90;;;;;;5063373;28;20231;-55
2021/12/29 12:22:29;;;;;;;13.77;11.43;;;9.70;99.90;;;;;;5060480;28;20200;-55
2021/12/29 12:25:01;;;;;;;13.03;11.63;;;9.70;99.90;;;;;;5069713;28;20236;-55
2021/12/29 12:27:33;;;;;;;13.07;11.43;;;9.80;99.90;;;;;;5069945;28;20885;-55
2021/12/29 12:30:06;;;;;;;11.40;10.30;;;9.80;99.90;;;;;;5070276;28;20264;-54
2021/12/29 12:32:46;;;;;;;11.30;10.10;;;9.90;99.90;;;;;;5071885;28;20209;-56
2021/12/29 12:35:29;;;;;;;11.33;9.07;;;9.90;99.90;;;;;;5066689;28;20226;-54
2021/12/29 12:37:57;;;;;;;10.80;9.67;;;9.90;99.90;;;;;;5071911;28;20204;-54
2021/12/29 12:40:28;;;;;;;10.83;9.60;;;9.90;99.90;;;;;;5072308;28;20224;-54
2021/12/29 12:43:06;;;;;;;10.33;9.33;;;10.00;99.90;;;;;;5071932;28;20216;-52
2021/12/29 12:45:37;;;;;;;11.33;10.23;;;10.10;99.90;;;;;;5071763;28;20233;-54
2021/12/29 12:48:08;;;;;;;10.13;9.13;;;10.10;99.90;;;;;;5071652;28;20239;-55
2021/12/29 12:50:39;;;;;;;12.00;9.97;;;10.10;99.90;;;;;;5071732;28;20252;-54
2021/12/29 12:53:08;;;;;;;9.93;8.93;;;10.10;99.90;;;;;;5071281;28;20262;-55
2021/12/29 12:55:46;;;;;;;10.60;9.50;;;10.00;99.90;;;;;;5071482;28;20224;-54
2021/12/29 12:58:17;;;;;;;12.53;10.67;;;9.90;99.90;;;;;;5072272;28;20288;-54
2021/12/29 13:00:49;;;;;;;9.80;8.80;;;9.90;99.90;;;;;;5067294;28;20208;-51
2021/12/29 13:03:20;;;;;;;10.23;9.33;;;9.90;99.90;;;;;;5069324;28;20212;-52
2021/12/29 13:05:55;;;;;;;14.50;10.03;;;9.90;99.90;;;;;;5070976;28;20244;-52
2021/12/29 13:08:26;;;;;;;13.67;11.23;;;9.80;99.90;;;;;;5070662;28;20266;-55
2021/12/29 13:10:57;;;;;;;11.33;10.20;;;9.90;99.90;;;;;;5071408;28;20220;-53
2021/12/29 13:13:29;;;;;;;11.10;9.97;;;9.90;99.90;;;;;;5070887;28;20208;-58